KRHI/RHI METAR and TAF weather

Enter ICAO airport designator
Station Type Date Time Source
KRHI METAR 2020/10/20 16:53 UTC NOAA

KRHI 201653Z AUTO 13009KT 10SM CLR 02/M07 A3025 RMK AO2 SLP267 T00171072


Station Type Date Time Source
KRHI Decoded METAR 2020/10/20 16:53 UTC NOAA

RHINELANDER-ONEIDA CO AIRPORT , WI, United States (KRHI) 45-38N 89-29W 485M
Oct 20, 2020 - 12:53 PM EDT / 2020.10.20 1653 UTC
Wind: from the SE (130 degrees) at 10 MPH (9 KT):0
Visibility: 10 mile(s):0
Sky conditions: clear
Temperature: 35.1 F (1.7 C)
Dew Point: 19.0 F (-7.2 C)
Relative Humidity: 51%
Pressure (altimeter): 30.25 in. Hg (1024 hPa)
ob: KRHI 201653Z AUTO 13009KT 10SM CLR 02/M07 A3025 RMK AO2 SLP267 T00171072
cycle: 17

Station Type Date Time Source
KRHI TAF 2020/10/20 18:30 UTC NOAA

TAF KRHI 201729Z 2018/2118 10005KT P6SM BKN120
FM202100 13007KT P6SM -RASN OVC050
FM202200 13006G15KT 3SM -SN BKN015 OVC035
FM202300 12005KT 1SM -SN OVC005
TEMPO 2023/2103 1/2SM SN OVC003
FM210500 15005KT 2SM -SNRA BR OVC003
FM210800 25008KT 3SM BR OVC005
FM211400 26011G17KT P6SM BKN020

Example: see airport list